sensor_id;sensor_type;location;lat;lon;timestamp;P1;durP1;ratioP1;P2;durP2;ratioP2
20772;SDS011;10546;50.674;4.616;2023-05-31T05:32:50;19.23;;;11.18;;
20772;SDS011;10546;50.674;4.616;2023-05-31T05:35:16;15.27;;;10.18;;
20772;SDS011;10546;50.674;4.616;2023-05-31T05:37:42;17.67;;;10.90;;
20772;SDS011;10546;50.674;4.616;2023-05-31T05:40:07;16.42;;;11.05;;
20772;SDS011;10546;50.674;4.616;2023-05-31T05:42:33;16.52;;;11.88;;
20772;SDS011;10546;50.674;4.616;2023-05-31T05:45:05;17.83;;;11.35;;
20772;SDS011;10546;50.674;4.616;2023-05-31T05:47:32;18.00;;;11.15;;
20772;SDS011;10546;50.674;4.616;2023-05-31T05:49:58;18.63;;;11.25;;
20772;SDS011;10546;50.674;4.616;2023-05-31T05:52:24;15.55;;;10.88;;
20772;SDS011;10546;50.674;4.616;2023-05-31T05:54:50;17.35;;;11.48;;
20772;SDS011;10546;50.674;4.616;2023-05-31T05:57:16;22.70;;;11.10;;
20772;SDS011;10546;50.674;4.616;2023-05-31T05:59:41;18.08;;;10.93;;
20772;SDS011;10546;50.674;4.616;2023-05-31T06:02:07;14.75;;;10.50;;
20772;SDS011;10546;50.674;4.616;2023-05-31T06:04:33;16.85;;;11.18;;
20772;SDS011;10546;50.674;4.616;2023-05-31T06:06:58;18.13;;;11.68;;
20772;SDS011;10546;50.674;4.616;2023-05-31T06:09:24;17.92;;;11.40;;
20772;SDS011;10546;50.674;4.616;2023-05-31T06:11:50;16.92;;;11.05;;
20772;SDS011;10546;50.674;4.616;2023-05-31T06:14:15;17.45;;;11.35;;
20772;SDS011;10546;50.674;4.616;2023-05-31T06:16:41;18.58;;;10.50;;
20772;SDS011;10546;50.674;4.616;2023-05-31T06:19:06;16.20;;;11.20;;
20772;SDS011;10546;50.674;4.616;2023-05-31T06:21:32;15.13;;;10.15;;
20772;SDS011;10546;50.674;4.616;2023-05-31T06:23:58;15.60;;;11.50;;
20772;SDS011;10546;50.674;4.616;2023-05-31T06:26:23;15.35;;;10.65;;
20772;SDS011;10546;50.674;4.616;2023-05-31T06:28:49;12.80;;;10.38;;
20772;SDS011;10546;50.674;4.616;2023-05-31T06:31:15;16.45;;;10.68;;
20772;SDS011;10546;50.674;4.616;2023-05-31T06:33:41;15.80;;;10.93;;
20772;SDS011;10546;50.674;4.616;2023-05-31T06:36:07;17.25;;;11.15;;
20772;SDS011;10546;50.674;4.616;2023-05-31T06:38:32;15.32;;;10.65;;
20772;SDS011;10546;50.674;4.616;2023-05-31T06:40:58;16.80;;;10.55;;
20772;SDS011;10546;50.674;4.616;2023-05-31T06:43:24;15.77;;;10.10;;
20772;SDS011;10546;50.674;4.616;2023-05-31T06:45:50;13.82;;;10.10;;
20772;SDS011;10546;50.674;4.616;2023-05-31T06:48:15;18.15;;;10.75;;
20772;SDS011;10546;50.674;4.616;2023-05-31T06:50:41;16.00;;;9.90;;
20772;SDS011;10546;50.674;4.616;2023-05-31T06:53:07;15.43;;;9.60;;
20772;SDS011;10546;50.674;4.616;2023-05-31T06:55:34;15.35;;;10.55;;
20772;SDS011;10546;50.674;4.616;2023-05-31T06:58:00;14.73;;;10.55;;
20772;SDS011;10546;50.674;4.616;2023-05-31T07:00:26;13.98;;;9.63;;
20772;SDS011;10546;50.674;4.616;2023-05-31T07:02:52;13.50;;;10.30;;
20772;SDS011;10546;50.674;4.616;2023-05-31T07:05:18;17.10;;;9.55;;
20772;SDS011;10546;50.674;4.616;2023-05-31T07:07:43;21.83;;;10.23;;
20772;SDS011;10546;50.674;4.616;2023-05-31T07:10:09;17.75;;;10.50;;
20772;SDS011;10546;50.674;4.616;2023-05-31T07:12:35;12.90;;;8.77;;
20772;SDS011;10546;50.674;4.616;2023-05-31T07:15:00;20.25;;;9.82;;
20772;SDS011;10546;50.674;4.616;2023-05-31T07:17:26;16.63;;;10.45;;
20772;SDS011;10546;50.674;4.616;2023-05-31T07:19:51;15.70;;;9.43;;
20772;SDS011;10546;50.674;4.616;2023-05-31T07:22:17;14.68;;;9.40;;
20772;SDS011;10546;50.674;4.616;2023-05-31T07:24:43;14.75;;;9.40;;
20772;SDS011;10546;50.674;4.616;2023-05-31T07:27:09;15.80;;;9.43;;
20772;SDS011;10546;50.674;4.616;2023-05-31T07:29:35;15.40;;;9.55;;
20772;SDS011;10546;50.674;4.616;2023-05-31T07:32:01;16.58;;;9.93;;
20772;SDS011;10546;50.674;4.616;2023-05-31T07:34:27;16.48;;;9.00;;
20772;SDS011;10546;50.674;4.616;2023-05-31T07:36:53;22.30;;;9.50;;
20772;SDS011;10546;50.674;4.616;2023-05-31T07:39:20;16.85;;;9.70;;
20772;SDS011;10546;50.674;4.616;2023-05-31T07:41:46;14.15;;;8.75;;
20772;SDS011;10546;50.674;4.616;2023-05-31T07:44:12;15.68;;;9.63;;
20772;SDS011;10546;50.674;4.616;2023-05-31T07:46:38;12.68;;;8.90;;
20772;SDS011;10546;50.674;4.616;2023-05-31T07:49:04;13.88;;;9.10;;
20772;SDS011;10546;50.674;4.616;2023-05-31T07:51:30;15.40;;;8.75;;
20772;SDS011;10546;50.674;4.616;2023-05-31T07:53:57;14.73;;;8.85;;
20772;SDS011;10546;50.674;4.616;2023-05-31T07:56:22;15.05;;;8.55;;
20772;SDS011;10546;50.674;4.616;2023-05-31T07:58:49;16.83;;;8.95;;
20772;SDS011;10546;50.674;4.616;2023-05-31T08:01:14;14.00;;;8.48;;
20772;SDS011;10546;50.674;4.616;2023-05-31T08:03:40;14.30;;;8.80;;
20772;SDS011;10546;50.674;4.616;2023-05-31T08:06:06;13.32;;;7.97;;
20772;SDS011;10546;50.674;4.616;2023-05-31T08:08:33;16.98;;;8.40;;
20772;SDS011;10546;50.674;4.616;2023-05-31T08:10:59;18.10;;;8.55;;
20772;SDS011;10546;50.674;4.616;2023-05-31T08:13:25;11.80;;;8.07;;
20772;SDS011;10546;50.674;4.616;2023-05-31T08:15:51;13.77;;;8.30;;
20772;SDS011;10546;50.674;4.616;2023-05-31T08:18:17;15.00;;;8.45;;
20772;SDS011;10546;50.674;4.616;2023-05-31T08:20:43;12.95;;;7.72;;
20772;SDS011;10546;50.674;4.616;2023-05-31T08:23:16;12.60;;;7.63;;
20772;SDS011;10546;50.674;4.616;2023-05-31T08:25:45;12.48;;;8.20;;
20772;SDS011;10546;50.674;4.616;2023-05-31T08:28:11;15.70;;;7.80;;
20772;SDS011;10546;50.674;4.616;2023-05-31T08:30:37;12.73;;;7.57;;
20772;SDS011;10546;50.674;4.616;2023-05-31T08:33:03;16.50;;;8.02;;
20772;SDS011;10546;50.674;4.616;2023-05-31T08:35:28;12.13;;;7.93;;
20772;SDS011;10546;50.674;4.616;2023-05-31T08:37:55;16.08;;;7.45;;
20772;SDS011;10546;50.674;4.616;2023-05-31T08:40:20;12.30;;;7.80;;
20772;SDS011;10546;50.674;4.616;2023-05-31T08:42:51;11.20;;;7.00;;
20772;SDS011;10546;50.674;4.616;2023-05-31T08:45:25;12.27;;;6.80;;
20772;SDS011;10546;50.674;4.616;2023-05-31T08:50:41;13.65;;;7.10;;
20772;SDS011;10546;50.674;4.616;2023-05-31T08:53:07;10.52;;;7.03;;
20772;SDS011;10546;50.674;4.616;2023-05-31T08:55:34;12.38;;;7.38;;
20772;SDS011;10546;50.674;4.616;2023-05-31T08:58:01;12.80;;;6.90;;
20772;SDS011;10546;50.674;4.616;2023-05-31T09:00:28;13.02;;;6.80;;
20772;SDS011;10546;50.674;4.616;2023-05-31T09:02:54;12.77;;;7.25;;
20772;SDS011;10546;50.674;4.616;2023-05-31T09:05:21;11.60;;;7.00;;
20772;SDS011;10546;50.674;4.616;2023-05-31T09:07:46;12.13;;;7.10;;
20772;SDS011;10546;50.674;4.616;2023-05-31T09:10:14;16.35;;;7.05;;
20772;SDS011;10546;50.674;4.616;2023-05-31T09:12:41;11.80;;;6.97;;
20772;SDS011;10546;50.674;4.616;2023-05-31T09:15:06;12.77;;;6.55;;
20772;SDS011;10546;50.674;4.616;2023-05-31T09:17:33;16.38;;;7.20;;
20772;SDS011;10546;50.674;4.616;2023-05-31T09:19:58;10.20;;;6.28;;
20772;SDS011;10546;50.674;4.616;2023-05-31T09:22:25;17.10;;;7.10;;
20772;SDS011;10546;50.674;4.616;2023-05-31T09:24:58;11.88;;;6.60;;
20772;SDS011;10546;50.674;4.616;2023-05-31T09:27:25;9.52;;;6.47;;
20772;SDS011;10546;50.674;4.616;2023-05-31T09:29:59;9.15;;;5.88;;
20772;SDS011;10546;50.674;4.616;2023-05-31T09:32:30;13.63;;;6.70;;
20772;SDS011;10546;50.674;4.616;2023-05-31T09:35:03;13.23;;;6.10;;
20772;SDS011;10546;50.674;4.616;2023-05-31T09:37:38;11.85;;;5.50;;
20772;SDS011;10546;50.674;4.616;2023-05-31T09:40:24;11.43;;;5.70;;
20772;SDS011;10546;50.674;4.616;2023-05-31T09:42:51;10.48;;;5.40;;
20772;SDS011;10546;50.674;4.616;2023-05-31T09:45:18;11.95;;;5.78;;
20772;SDS011;10546;50.674;4.616;2023-05-31T09:47:45;11.48;;;5.80;;
20772;SDS011;10546;50.674;4.616;2023-05-31T09:50:13;12.88;;;5.57;;
20772;SDS011;10546;50.674;4.616;2023-05-31T09:52:41;12.02;;;5.63;;
20772;SDS011;10546;50.674;4.616;2023-05-31T09:55:13;14.75;;;5.40;;
20772;SDS011;10546;50.674;4.616;2023-05-31T09:57:41;13.07;;;6.55;;
20772;SDS011;10546;50.674;4.616;2023-05-31T10:00:12;11.85;;;5.40;;
20772;SDS011;10546;50.674;4.616;2023-05-31T10:02:49;10.75;;;5.43;;
20772;SDS011;10546;50.674;4.616;2023-05-31T10:05:16;10.32;;;5.47;;
20772;SDS011;10546;50.674;4.616;2023-05-31T10:07:44;11.45;;;5.70;;
20772;SDS011;10546;50.674;4.616;2023-05-31T10:10:11;9.50;;;5.18;;
20772;SDS011;10546;50.674;4.616;2023-05-31T10:12:41;13.77;;;5.35;;
20772;SDS011;10546;50.674;4.616;2023-05-31T10:15:13;10.02;;;4.25;;
20772;SDS011;10546;50.674;4.616;2023-05-31T10:17:45;12.38;;;5.65;;
20772;SDS011;10546;50.674;4.616;2023-05-31T10:20:15;10.98;;;4.82;;
20772;SDS011;10546;50.674;4.616;2023-05-31T10:22:43;9.88;;;4.70;;
20772;SDS011;10546;50.674;4.616;2023-05-31T10:25:11;6.97;;;3.80;;
20772;SDS011;10546;50.674;4.616;2023-05-31T10:27:50;11.85;;;4.18;;
20772;SDS011;10546;50.674;4.616;2023-05-31T10:30:18;10.60;;;4.18;;
20772;SDS011;10546;50.674;4.616;2023-05-31T10:32:53;12.23;;;4.13;;
20772;SDS011;10546;50.674;4.616;2023-05-31T10:35:25;6.60;;;3.65;;
20772;SDS011;10546;50.674;4.616;2023-05-31T10:37:51;9.50;;;3.50;;
20772;SDS011;10546;50.674;4.616;2023-05-31T10:51:08;7.85;;;4.00;;
20772;SDS011;10546;50.674;4.616;2023-05-31T10:53:36;11.23;;;4.18;;
20772;SDS011;10546;50.674;4.616;2023-05-31T10:56:12;10.65;;;3.70;;
20772;SDS011;10546;50.674;4.616;2023-05-31T10:58:39;5.70;;;3.33;;
20772;SDS011;10546;50.674;4.616;2023-05-31T11:01:13;9.27;;;3.05;;
20772;SDS011;10546;50.674;4.616;2023-05-31T11:03:47;11.95;;;3.60;;
20772;SDS011;10546;50.674;4.616;2023-05-31T11:06:17;12.27;;;3.30;;
20772;SDS011;10546;50.674;4.616;2023-05-31T11:08:58;13.05;;;3.08;;
20772;SDS011;10546;50.674;4.616;2023-05-31T11:14:30;7.05;;;2.63;;
20772;SDS011;10546;50.674;4.616;2023-05-31T11:19:29;6.32;;;3.22;;
20772;SDS011;10546;50.674;4.616;2023-05-31T11:21:56;6.47;;;3.22;;
20772;SDS011;10546;50.674;4.616;2023-05-31T11:24:36;7.60;;;2.80;;
20772;SDS011;10546;50.674;4.616;2023-05-31T11:27:02;10.77;;;3.17;;
20772;SDS011;10546;50.674;4.616;2023-05-31T11:32:10;9.07;;;3.33;;
20772;SDS011;10546;50.674;4.616;2023-05-31T11:34:47;14.05;;;3.28;;
20772;SDS011;10546;50.674;4.616;2023-05-31T11:37:13;8.43;;;3.47;;
20772;SDS011;10546;50.674;4.616;2023-05-31T11:39:43;11.13;;;3.20;;
20772;SDS011;10546;50.674;4.616;2023-05-31T11:42:09;7.38;;;2.80;;
20772;SDS011;10546;50.674;4.616;2023-05-31T11:44:35;6.53;;;2.67;;
20772;SDS011;10546;50.674;4.616;2023-05-31T11:47:08;15.38;;;3.05;;
20772;SDS011;10546;50.674;4.616;2023-05-31T11:49:36;7.68;;;3.25;;
20772;SDS011;10546;50.674;4.616;2023-05-31T11:52:02;6.95;;;2.67;;
20772;SDS011;10546;50.674;4.616;2023-05-31T11:54:31;8.77;;;3.03;;
20772;SDS011;10546;50.674;4.616;2023-05-31T11:57:04;11.10;;;3.13;;
20772;SDS011;10546;50.674;4.616;2023-05-31T11:59:34;6.05;;;2.70;;
20772;SDS011;10546;50.674;4.616;2023-05-31T12:02:02;20.17;;;3.67;;
20772;SDS011;10546;50.674;4.616;2023-05-31T12:04:33;14.82;;;3.78;;
20772;SDS011;10546;50.674;4.616;2023-05-31T12:07:02;10.50;;;3.25;;
20772;SDS011;10546;50.674;4.616;2023-05-31T12:09:32;11.88;;;3.58;;
20772;SDS011;10546;50.674;4.616;2023-05-31T12:11:59;7.63;;;2.90;;
20772;SDS011;10546;50.674;4.616;2023-05-31T12:14:28;7.28;;;3.35;;
20772;SDS011;10546;50.674;4.616;2023-05-31T12:16:54;6.75;;;2.88;;
20772;SDS011;10546;50.674;4.616;2023-05-31T12:19:20;10.98;;;3.20;;
20772;SDS011;10546;50.674;4.616;2023-05-31T12:21:47;8.18;;;3.20;;
20772;SDS011;10546;50.674;4.616;2023-05-31T12:24:13;9.32;;;2.95;;
20772;SDS011;10546;50.674;4.616;2023-05-31T12:26:41;7.22;;;3.08;;
20772;SDS011;10546;50.674;4.616;2023-05-31T12:29:10;7.95;;;2.78;;
20772;SDS011;10546;50.674;4.616;2023-05-31T12:31:39;13.02;;;3.33;;
20772;SDS011;10546;50.674;4.616;2023-05-31T12:36:40;7.55;;;3.00;;
20772;SDS011;10546;50.674;4.616;2023-05-31T12:39:17;5.65;;;2.45;;
20772;SDS011;10546;50.674;4.616;2023-05-31T12:41:43;12.13;;;3.05;;
20772;SDS011;10546;50.674;4.616;2023-05-31T12:44:09;6.80;;;2.78;;
20772;SDS011;10546;50.674;4.616;2023-05-31T12:46:47;8.40;;;2.72;;
20772;SDS011;10546;50.674;4.616;2023-05-31T12:49:34;4.88;;;2.65;;
20772;SDS011;10546;50.674;4.616;2023-05-31T12:52:09;12.18;;;3.50;;
20772;SDS011;10546;50.674;4.616;2023-05-31T12:54:35;10.85;;;2.92;;
20772;SDS011;10546;50.674;4.616;2023-05-31T12:57:03;10.15;;;3.13;;
20772;SDS011;10546;50.674;4.616;2023-05-31T12:59:30;12.25;;;3.25;;
20772;SDS011;10546;50.674;4.616;2023-05-31T13:01:59;9.25;;;3.20;;
20772;SDS011;10546;50.674;4.616;2023-05-31T13:04:26;6.72;;;2.95;;
20772;SDS011;10546;50.674;4.616;2023-05-31T13:06:52;7.78;;;2.80;;
20772;SDS011;10546;50.674;4.616;2023-05-31T13:09:18;11.35;;;3.45;;
20772;SDS011;10546;50.674;4.616;2023-05-31T13:11:44;10.07;;;3.10;;
20772;SDS011;10546;50.674;4.616;2023-05-31T13:14:13;9.98;;;3.38;;
20772;SDS011;10546;50.674;4.616;2023-05-31T13:16:40;10.35;;;3.10;;
20772;SDS011;10546;50.674;4.616;2023-05-31T13:19:06;10.27;;;3.25;;
20772;SDS011;10546;50.674;4.616;2023-05-31T13:21:32;7.90;;;3.20;;
20772;SDS011;10546;50.674;4.616;2023-05-31T13:24:00;7.18;;;3.15;;
20772;SDS011;10546;50.674;4.616;2023-05-31T13:26:28;11.27;;;3.67;;
20772;SDS011;10546;50.674;4.616;2023-05-31T13:28:54;7.22;;;2.83;;
20772;SDS011;10546;50.674;4.616;2023-05-31T13:31:21;12.15;;;3.75;;
20772;SDS011;10546;50.674;4.616;2023-05-31T13:33:47;9.60;;;3.80;;
20772;SDS011;10546;50.674;4.616;2023-05-31T13:36:14;11.88;;;3.55;;
20772;SDS011;10546;50.674;4.616;2023-05-31T13:38:40;16.58;;;3.53;;
20772;SDS011;10546;50.674;4.616;2023-05-31T13:41:07;8.38;;;3.33;;
20772;SDS011;10546;50.674;4.616;2023-05-31T13:43:33;8.90;;;3.10;;
20772;SDS011;10546;50.674;4.616;2023-05-31T13:45:59;12.80;;;3.85;;
20772;SDS011;10546;50.674;4.616;2023-05-31T13:48:25;8.68;;;2.85;;
20772;SDS011;10546;50.674;4.616;2023-05-31T13:50:51;7.53;;;2.80;;
20772;SDS011;10546;50.674;4.616;2023-05-31T13:53:20;12.77;;;3.70;;
20772;SDS011;10546;50.674;4.616;2023-05-31T13:55:46;6.35;;;2.92;;
20772;SDS011;10546;50.674;4.616;2023-05-31T13:58:12;8.38;;;3.42;;
20772;SDS011;10546;50.674;4.616;2023-05-31T14:00:38;11.40;;;3.30;;
20772;SDS011;10546;50.674;4.616;2023-05-31T14:03:04;8.02;;;3.33;;
20772;SDS011;10546;50.674;4.616;2023-05-31T14:05:30;8.95;;;3.45;;
20772;SDS011;10546;50.674;4.616;2023-05-31T14:07:55;11.75;;;3.72;;
20772;SDS011;10546;50.674;4.616;2023-05-31T14:10:22;12.40;;;3.60;;
20772;SDS011;10546;50.674;4.616;2023-05-31T14:12:48;9.88;;;4.32;;
20772;SDS011;10546;50.674;4.616;2023-05-31T14:15:14;10.80;;;4.00;;
20772;SDS011;10546;50.674;4.616;2023-05-31T14:17:41;14.65;;;3.90;;
20772;SDS011;10546;50.674;4.616;2023-05-31T14:20:06;14.85;;;4.20;;
20772;SDS011;10546;50.674;4.616;2023-05-31T14:22:33;12.18;;;3.28;;
20772;SDS011;10546;50.674;4.616;2023-05-31T14:24:59;6.40;;;3.05;;
20772;SDS011;10546;50.674;4.616;2023-05-31T14:27:25;8.15;;;2.80;;
20772;SDS011;10546;50.674;4.616;2023-05-31T14:29:50;8.18;;;3.28;;
20772;SDS011;10546;50.674;4.616;2023-05-31T14:32:16;12.32;;;2.90;;
20772;SDS011;10546;50.674;4.616;2023-05-31T14:34:45;7.55;;;3.28;;
20772;SDS011;10546;50.674;4.616;2023-05-31T14:37:12;13.18;;;3.13;;
20772;SDS011;10546;50.674;4.616;2023-05-31T14:39:38;7.35;;;3.20;;
20772;SDS011;10546;50.674;4.616;2023-05-31T14:42:04;6.70;;;3.00;;
20772;SDS011;10546;50.674;4.616;2023-05-31T14:44:34;9.48;;;3.10;;
20772;SDS011;10546;50.674;4.616;2023-05-31T14:47:01;8.93;;;2.80;;
20772;SDS011;10546;50.674;4.616;2023-05-31T14:49:27;7.45;;;2.85;;
20772;SDS011;10546;50.674;4.616;2023-05-31T14:51:52;12.05;;;2.75;;
20772;SDS011;10546;50.674;4.616;2023-05-31T14:54:18;11.82;;;3.15;;
20772;SDS011;10546;50.674;4.616;2023-05-31T14:56:45;9.75;;;2.85;;
20772;SDS011;10546;50.674;4.616;2023-05-31T14:59:11;6.10;;;2.88;;
20772;SDS011;10546;50.674;4.616;2023-05-31T15:01:37;9.45;;;3.30;;
20772;SDS011;10546;50.674;4.616;2023-05-31T15:04:13;11.98;;;2.78;;
20772;SDS011;10546;50.674;4.616;2023-05-31T15:06:40;9.38;;;2.90;;
20772;SDS011;10546;50.674;4.616;2023-05-31T15:09:07;10.23;;;2.60;;
20772;SDS011;10546;50.674;4.616;2023-05-31T15:11:35;7.30;;;2.78;;
20772;SDS011;10546;50.674;4.616;2023-05-31T15:14:02;7.13;;;2.72;;
20772;SDS011;10546;50.674;4.616;2023-05-31T15:16:28;8.75;;;3.35;;
20772;SDS011;10546;50.674;4.616;2023-05-31T15:18:54;12.43;;;3.25;;
20772;SDS011;10546;50.674;4.616;2023-05-31T15:21:19;10.00;;;2.92;;
20772;SDS011;10546;50.674;4.616;2023-05-31T15:23:45;10.00;;;3.30;;
20772;SDS011;10546;50.674;4.616;2023-05-31T15:26:11;10.35;;;3.20;;
20772;SDS011;10546;50.674;4.616;2023-05-31T15:28:38;11.65;;;2.88;;
20772;SDS011;10546;50.674;4.616;2023-05-31T15:31:03;11.95;;;3.35;;
20772;SDS011;10546;50.674;4.616;2023-05-31T15:33:33;9.05;;;3.20;;
20772;SDS011;10546;50.674;4.616;2023-05-31T15:36:04;8.35;;;2.83;;
20772;SDS011;10546;50.674;4.616;2023-05-31T15:38:31;9.65;;;2.67;;
20772;SDS011;10546;50.674;4.616;2023-05-31T15:40:56;7.20;;;2.97;;
20772;SDS011;10546;50.674;4.616;2023-05-31T15:43:25;5.25;;;2.60;;
20772;SDS011;10546;50.674;4.616;2023-05-31T15:45:54;10.48;;;2.53;;
20772;SDS011;10546;50.674;4.616;2023-05-31T15:48:21;12.93;;;3.08;;
20772;SDS011;10546;50.674;4.616;2023-05-31T15:50:48;9.23;;;2.50;;
20772;SDS011;10546;50.674;4.616;2023-05-31T15:53:14;9.50;;;2.50;;
20772;SDS011;10546;50.674;4.616;2023-05-31T15:55:43;5.45;;;2.40;;
20772;SDS011;10546;50.674;4.616;2023-05-31T15:58:09;6.45;;;2.35;;
20772;SDS011;10546;50.674;4.616;2023-05-31T16:00:36;4.93;;;2.50;;
20772;SDS011;10546;50.674;4.616;2023-05-31T16:03:01;4.25;;;2.35;;
20772;SDS011;10546;50.674;4.616;2023-05-31T16:05:27;6.57;;;2.28;;
20772;SDS011;10546;50.674;4.616;2023-05-31T16:07:53;4.72;;;2.20;;
20772;SDS011;10546;50.674;4.616;2023-05-31T16:10:19;5.20;;;2.30;;
20772;SDS011;10546;50.674;4.616;2023-05-31T16:12:45;6.75;;;2.42;;
20772;SDS011;10546;50.674;4.616;2023-05-31T16:15:12;7.75;;;2.35;;
20772;SDS011;10546;50.674;4.616;2023-05-31T16:17:38;8.35;;;2.38;;
20772;SDS011;10546;50.674;4.616;2023-05-31T16:20:09;6.28;;;2.45;;
20772;SDS011;10546;50.674;4.616;2023-05-31T16:22:35;8.48;;;3.13;;
20772;SDS011;10546;50.674;4.616;2023-05-31T16:25:01;9.10;;;2.20;;
20772;SDS011;10546;50.674;4.616;2023-05-31T16:27:26;8.30;;;2.70;;
20772;SDS011;10546;50.674;4.616;2023-05-31T16:29:52;10.50;;;2.25;;
20772;SDS011;10546;50.674;4.616;2023-05-31T16:32:18;10.43;;;2.42;;
20772;SDS011;10546;50.674;4.616;2023-05-31T16:34:43;8.95;;;2.42;;
20772;SDS011;10546;50.674;4.616;2023-05-31T16:37:10;5.57;;;1.80;;
20772;SDS011;10546;50.674;4.616;2023-05-31T16:39:36;6.72;;;2.53;;
20772;SDS011;10546;50.674;4.616;2023-05-31T16:42:02;8.80;;;2.50;;
20772;SDS011;10546;50.674;4.616;2023-05-31T16:44:29;8.30;;;2.40;;
20772;SDS011;10546;50.674;4.616;2023-05-31T16:46:54;7.18;;;2.20;;
20772;SDS011;10546;50.674;4.616;2023-05-31T16:49:20;5.75;;;2.25;;
20772;SDS011;10546;50.674;4.616;2023-05-31T16:51:46;12.73;;;2.58;;
20772;SDS011;10546;50.674;4.616;2023-05-31T16:54:11;5.97;;;2.30;;
20772;SDS011;10546;50.674;4.616;2023-05-31T16:56:37;5.00;;;2.05;;
20772;SDS011;10546;50.674;4.616;2023-05-31T16:59:03;5.60;;;2.50;;
20772;SDS011;10546;50.674;4.616;2023-05-31T17:01:32;7.00;;;2.20;;
20772;SDS011;10546;50.674;4.616;2023-05-31T17:03:58;6.18;;;2.45;;
20772;SDS011;10546;50.674;4.616;2023-05-31T17:06:24;6.15;;;2.30;;
20772;SDS011;10546;50.674;4.616;2023-05-31T17:08:49;6.95;;;2.10;;
20772;SDS011;10546;50.674;4.616;2023-05-31T17:11:15;8.52;;;2.70;;
20772;SDS011;10546;50.674;4.616;2023-05-31T17:13:41;4.68;;;2.20;;
20772;SDS011;10546;50.674;4.616;2023-05-31T17:16:06;7.22;;;2.17;;
20772;SDS011;10546;50.674;4.616;2023-05-31T17:18:32;8.55;;;2.70;;
20772;SDS011;10546;50.674;4.616;2023-05-31T17:20:57;6.78;;;2.40;;
20772;SDS011;10546;50.674;4.616;2023-05-31T17:23:23;6.88;;;2.20;;
20772;SDS011;10546;50.674;4.616;2023-05-31T17:25:53;7.70;;;2.55;;
20772;SDS011;10546;50.674;4.616;2023-05-31T17:28:18;4.00;;;2.40;;
20772;SDS011;10546;50.674;4.616;2023-05-31T17:30:44;4.78;;;2.53;;
20772;SDS011;10546;50.674;4.616;2023-05-31T17:33:10;7.95;;;2.10;;
20772;SDS011;10546;50.674;4.616;2023-05-31T17:35:36;7.22;;;2.40;;
20772;SDS011;10546;50.674;4.616;2023-05-31T17:38:02;6.18;;;2.13;;
20772;SDS011;10546;50.674;4.616;2023-05-31T17:40:28;7.18;;;2.28;;
20772;SDS011;10546;50.674;4.616;2023-05-31T17:42:53;8.27;;;3.03;;
20772;SDS011;10546;50.674;4.616;2023-05-31T17:45:19;5.35;;;2.38;;
20772;SDS011;10546;50.674;4.616;2023-05-31T17:47:45;4.80;;;2.22;;
20772;SDS011;10546;50.674;4.616;2023-05-31T17:50:10;7.15;;;2.50;;
20772;SDS011;10546;50.674;4.616;2023-05-31T17:52:37;8.68;;;2.80;;
20772;SDS011;10546;50.674;4.616;2023-05-31T17:55:03;7.13;;;2.83;;
20772;SDS011;10546;50.674;4.616;2023-05-31T17:57:30;9.40;;;2.97;;
20772;SDS011;10546;50.674;4.616;2023-05-31T17:59:56;4.72;;;2.53;;
20772;SDS011;10546;50.674;4.616;2023-05-31T18:02:22;6.38;;;3.08;;
20772;SDS011;10546;50.674;4.616;2023-05-31T18:04:48;8.48;;;2.70;;
20772;SDS011;10546;50.674;4.616;2023-05-31T18:07:14;6.07;;;3.05;;
20772;SDS011;10546;50.674;4.616;2023-05-31T18:09:40;12.68;;;4.05;;
20772;SDS011;10546;50.674;4.616;2023-05-31T18:12:06;7.45;;;3.90;;
20772;SDS011;10546;50.674;4.616;2023-05-31T18:14:32;6.93;;;3.08;;
20772;SDS011;10546;50.674;4.616;2023-05-31T18:16:58;6.93;;;3.33;;
20772;SDS011;10546;50.674;4.616;2023-05-31T18:19:26;10.18;;;2.88;;
20772;SDS011;10546;50.674;4.616;2023-05-31T18:21:54;10.35;;;3.50;;
20772;SDS011;10546;50.674;4.616;2023-05-31T18:24:20;7.05;;;3.20;;
20772;SDS011;10546;50.674;4.616;2023-05-31T18:26:49;7.50;;;3.38;;
20772;SDS011;10546;50.674;4.616;2023-05-31T18:29:15;6.38;;;2.90;;
20772;SDS011;10546;50.674;4.616;2023-05-31T18:31:46;10.80;;;2.97;;
20772;SDS011;10546;50.674;4.616;2023-05-31T18:34:12;5.15;;;3.00;;
20772;SDS011;10546;50.674;4.616;2023-05-31T18:36:38;9.00;;;3.08;;
20772;SDS011;10546;50.674;4.616;2023-05-31T18:39:09;8.20;;;2.97;;
20772;SDS011;10546;50.674;4.616;2023-05-31T18:44:59;17.85;;;3.50;;
20772;SDS011;10546;50.674;4.616;2023-05-31T18:47:25;7.30;;;3.13;;
20772;SDS011;10546;50.674;4.616;2023-05-31T18:49:51;5.03;;;2.85;;
20772;SDS011;10546;50.674;4.616;2023-05-31T18:52:17;8.32;;;2.65;;
20772;SDS011;10546;50.674;4.616;2023-05-31T18:54:43;6.63;;;2.65;;
20772;SDS011;10546;50.674;4.616;2023-05-31T18:57:08;7.07;;;2.75;;
20772;SDS011;10546;50.674;4.616;2023-05-31T18:59:34;5.47;;;2.60;;
20772;SDS011;10546;50.674;4.616;2023-05-31T19:02:00;10.23;;;3.00;;
20772;SDS011;10546;50.674;4.616;2023-05-31T19:04:26;9.52;;;2.42;;
20772;SDS011;10546;50.674;4.616;2023-05-31T19:06:53;9.68;;;3.10;;
20772;SDS011;10546;50.674;4.616;2023-05-31T19:09:18;6.35;;;3.03;;
20772;SDS011;10546;50.674;4.616;2023-05-31T19:11:44;9.88;;;3.30;;
20772;SDS011;10546;50.674;4.616;2023-05-31T19:14:13;6.93;;;3.08;;
20772;SDS011;10546;50.674;4.616;2023-05-31T19:16:42;9.93;;;2.92;;
20772;SDS011;10546;50.674;4.616;2023-05-31T19:19:08;7.35;;;2.92;;
20772;SDS011;10546;50.674;4.616;2023-05-31T19:21:34;6.95;;;3.08;;
20772;SDS011;10546;50.674;4.616;2023-05-31T19:24:01;11.25;;;3.17;;
20772;SDS011;10546;50.674;4.616;2023-05-31T19:26:28;6.07;;;2.75;;
20772;SDS011;10546;50.674;4.616;2023-05-31T19:28:54;9.20;;;2.70;;
20772;SDS011;10546;50.674;4.616;2023-05-31T19:31:20;11.50;;;3.47;;
20772;SDS011;10546;50.674;4.616;2023-05-31T19:33:55;8.13;;;3.00;;
20772;SDS011;10546;50.674;4.616;2023-05-31T19:36:29;8.10;;;2.95;;
20772;SDS011;10546;50.674;4.616;2023-05-31T19:38:56;7.95;;;3.42;;
20772;SDS011;10546;50.674;4.616;2023-05-31T19:41:22;9.98;;;3.03;;
20772;SDS011;10546;50.674;4.616;2023-05-31T19:43:51;9.35;;;3.22;;
20772;SDS011;10546;50.674;4.616;2023-05-31T19:46:20;9.55;;;2.95;;
20772;SDS011;10546;50.674;4.616;2023-05-31T19:48:53;10.85;;;3.28;;
20772;SDS011;10546;50.674;4.616;2023-05-31T19:51:19;8.63;;;3.22;;
20772;SDS011;10546;50.674;4.616;2023-05-31T19:53:47;7.90;;;2.90;;
20772;SDS011;10546;50.674;4.616;2023-05-31T19:56:13;10.13;;;3.30;;
20772;SDS011;10546;50.674;4.616;2023-05-31T19:59:00;6.28;;;3.05;;
20772;SDS011;10546;50.674;4.616;2023-05-31T20:01:36;6.22;;;2.83;;
20772;SDS011;10546;50.674;4.616;2023-05-31T20:04:08;8.75;;;2.78;;
20772;SDS011;10546;50.674;4.616;2023-05-31T20:06:34;7.63;;;3.08;;
20772;SDS011;10546;50.674;4.616;2023-05-31T20:09:05;6.50;;;2.80;;
20772;SDS011;10546;50.674;4.616;2023-05-31T20:11:32;15.18;;;3.70;;
20772;SDS011;10546;50.674;4.616;2023-05-31T20:14:06;16.85;;;3.22;;
20772;SDS011;10546;50.674;4.616;2023-05-31T20:16:32;7.50;;;3.90;;
20772;SDS011;10546;50.674;4.616;2023-05-31T20:18:58;6.43;;;3.00;;
20772;SDS011;10546;50.674;4.616;2023-05-31T20:21:23;11.45;;;3.45;;
20772;SDS011;10546;50.674;4.616;2023-05-31T20:23:55;5.97;;;2.70;;
20772;SDS011;10546;50.674;4.616;2023-05-31T20:26:24;10.18;;;3.20;;
20772;SDS011;10546;50.674;4.616;2023-05-31T20:28:50;9.30;;;3.60;;
20772;SDS011;10546;50.674;4.616;2023-05-31T20:31:16;10.10;;;3.40;;
20772;SDS011;10546;50.674;4.616;2023-05-31T20:33:42;6.20;;;3.35;;
20772;SDS011;10546;50.674;4.616;2023-05-31T20:36:08;7.63;;;3.20;;
20772;SDS011;10546;50.674;4.616;2023-05-31T20:38:34;11.23;;;3.47;;